createdAt,value
2023-05-13T00:01:31.393Z,9.80
2023-05-13T00:03:03.024Z,9.75
2023-05-13T00:04:34.709Z,9.74
2023-05-13T00:06:06.494Z,9.71
2023-05-13T00:07:38.257Z,9.70
2023-05-13T00:09:10.238Z,9.69
2023-05-13T00:10:42.233Z,9.67
2023-05-13T00:12:13.999Z,9.67
2023-05-13T00:13:45.701Z,9.66
2023-05-13T00:15:17.493Z,9.66
2023-05-13T00:16:49.275Z,9.66
2023-05-13T00:18:21.143Z,9.67
2023-05-13T00:19:53.017Z,9.69
2023-05-13T00:21:24.647Z,9.66
2023-05-13T00:22:56.281Z,9.68
2023-05-13T00:24:28.362Z,9.66
2023-05-13T00:26:00.482Z,9.60
2023-05-13T00:27:33.056Z,9.53
2023-05-13T00:29:04.687Z,9.45
2023-05-13T00:30:36.843Z,9.36
2023-05-13T00:32:09.003Z,9.29
2023-05-13T00:33:41.289Z,9.22
2023-05-13T00:35:13.583Z,9.20
2023-05-13T00:36:46.142Z,9.19
2023-05-13T00:38:17.973Z,9.18
2023-05-13T00:39:49.735Z,9.19
2023-05-13T00:41:22.030Z,9.17
2023-05-13T00:42:54.395Z,9.14
2023-05-13T00:44:27.376Z,9.11
2023-05-13T00:45:59.001Z,9.08
2023-05-13T00:47:30.578Z,9.03
2023-05-13T00:49:02.576Z,9.02
2023-05-13T00:50:34.290Z,9.02
2023-05-13T00:52:06.003Z,9.01
2023-05-13T00:53:37.561Z,9.02
2023-05-13T00:55:10.398Z,9.02
2023-05-13T00:56:42.044Z,9.03
2023-05-13T00:58:13.853Z,9.03
2023-05-13T00:59:45.435Z,9.01
2023-05-13T01:01:35.902Z,9.04
2023-05-13T01:03:10.961Z,9.05
2023-05-13T01:04:58.974Z,9.06
2023-05-13T01:06:33.694Z,9.09
2023-05-13T01:08:25.215Z,9.11
2023-05-13T01:10:08.748Z,9.12
2023-05-13T01:11:40.565Z,9.15
2023-05-13T01:13:12.782Z,9.19
2023-05-13T01:14:52.529Z,9.20
2023-05-13T01:16:28.042Z,9.21
2023-05-13T01:18:01.730Z,9.25
2023-05-13T01:19:36.293Z,9.24
2023-05-13T01:21:08.475Z,9.30
2023-05-13T01:22:40.206Z,9.33
2023-05-13T01:24:11.898Z,9.35
2023-05-13T01:25:43.619Z,9.38
2023-05-13T01:27:16.061Z,9.38
2023-05-13T01:28:47.731Z,9.40
2023-05-13T01:30:19.610Z,9.43
2023-05-13T01:31:51.742Z,9.49
2023-05-13T01:33:23.590Z,9.54
2023-05-13T01:34:55.847Z,9.59
2023-05-13T01:36:27.454Z,9.66
2023-05-13T01:37:59.275Z,9.73
2023-05-13T01:39:31.025Z,9.81
2023-05-13T01:41:02.652Z,9.88
2023-05-13T01:42:35.109Z,9.90
2023-05-13T01:44:06.892Z,9.90
2023-05-13T01:45:38.669Z,9.92
2023-05-13T01:47:10.292Z,9.93
2023-05-13T01:48:42.099Z,9.94
2023-05-13T01:50:14.229Z,9.99
2023-05-13T01:51:46.180Z,10.03
2023-05-13T01:53:17.769Z,10.05
2023-05-13T01:54:49.495Z,10.06
2023-05-13T01:56:22.339Z,10.08
2023-05-13T01:57:54.056Z,10.11
2023-05-13T01:59:26.102Z,10.08
2023-05-13T02:00:57.699Z,10.10
2023-05-13T02:02:29.611Z,10.13
2023-05-13T02:04:01.358Z,10.09
2023-05-13T02:05:33.434Z,10.08
2023-05-13T02:07:05.073Z,10.00
2023-05-13T02:08:36.804Z,9.91
2023-05-13T02:10:08.954Z,9.80
2023-05-13T02:11:40.598Z,9.73
2023-05-13T02:13:12.768Z,9.67
2023-05-13T02:14:44.636Z,9.60
2023-05-13T02:16:16.754Z,9.54
2023-05-13T02:17:48.377Z,9.51
2023-05-13T02:19:20.227Z,9.51
2023-05-13T02:20:52.158Z,9.48
2023-05-13T02:22:24.298Z,9.43
2023-05-13T02:23:56.172Z,9.39
2023-05-13T02:25:28.149Z,9.37
2023-05-13T02:27:00.274Z,9.39
2023-05-13T02:28:32.981Z,9.39
2023-05-13T02:30:04.884Z,9.41
2023-05-13T02:31:37.105Z,9.46
2023-05-13T02:33:12.408Z,9.51
2023-05-13T02:34:44.102Z,9.57
2023-05-13T02:36:16.207Z,9.60
2023-05-13T02:37:47.902Z,9.62
2023-05-13T02:39:19.489Z,9.71
2023-05-13T02:40:51.388Z,9.76
2023-05-13T02:42:23.091Z,9.82
2023-05-13T02:43:54.742Z,9.88
2023-05-13T02:45:26.424Z,9.92
2023-05-13T02:46:58.099Z,9.95
2023-05-13T02:48:29.785Z,9.97
2023-05-13T02:50:01.364Z,9.99
2023-05-13T02:51:33.213Z,9.98
2023-05-13T02:53:04.888Z,10.00
2023-05-13T02:54:36.488Z,10.05
2023-05-13T02:56:08.400Z,10.06
2023-05-13T02:57:40.463Z,10.10
2023-05-13T02:59:12.207Z,10.10
2023-05-13T03:00:43.893Z,10.07
2023-05-13T03:02:15.761Z,10.07
2023-05-13T03:03:47.740Z,10.04
2023-05-13T03:05:19.689Z,9.99
2023-05-13T03:06:53.084Z,9.95
2023-05-13T03:08:24.768Z,9.90
2023-05-13T03:09:56.819Z,9.81
2023-05-13T03:11:28.474Z,9.82
2023-05-13T03:13:00.151Z,9.82
2023-05-13T03:14:31.890Z,9.85
2023-05-13T03:16:04.133Z,9.92
2023-05-13T03:17:36.033Z,9.94
2023-05-13T03:19:07.712Z,9.93
2023-05-13T03:20:39.662Z,9.94
2023-05-13T03:22:11.433Z,9.99
2023-05-13T03:23:43.398Z,10.01
2023-05-13T03:25:15.392Z,10.04
2023-05-13T03:26:46.982Z,10.07
2023-05-13T03:28:18.560Z,10.11
2023-05-13T03:29:50.873Z,10.13
2023-05-13T03:31:23.570Z,10.15
2023-05-13T03:32:55.167Z,10.17
2023-05-13T03:47:57.279Z,9.81
2023-05-13T03:49:29.448Z,9.85
2023-05-13T03:51:01.495Z,9.91
2023-05-13T03:52:33.657Z,9.93
2023-05-13T03:54:05.917Z,9.96
2023-05-13T03:55:37.649Z,9.99
2023-05-13T03:57:09.306Z,10.03
2023-05-13T03:58:41.697Z,10.07
2023-05-13T04:00:14.024Z,10.10
2023-05-13T04:01:50.170Z,10.08
2023-05-13T04:03:21.961Z,10.13
2023-05-13T04:04:53.894Z,10.17
2023-05-13T04:06:30.392Z,10.19
2023-05-13T04:08:03.137Z,10.23
2023-05-13T04:09:34.889Z,10.29
2023-05-13T04:11:06.470Z,10.35
2023-05-13T04:12:38.948Z,10.42
2023-05-13T04:14:15.162Z,10.48
2023-05-13T04:15:46.713Z,10.58
2023-05-13T04:17:18.467Z,10.66
2023-05-13T04:18:51.539Z,10.74
2023-05-13T04:20:24.309Z,10.87
2023-05-13T04:21:56.060Z,10.99
2023-05-13T04:23:27.956Z,11.06
2023-05-13T04:25:00.192Z,11.16
2023-05-13T04:26:36.406Z,11.21
2023-05-13T04:28:11.004Z,11.27
2023-05-13T04:29:42.650Z,11.24
2023-05-13T04:31:21.698Z,11.22
2023-05-13T04:32:53.337Z,11.23
2023-05-13T04:34:28.145Z,11.22
2023-05-13T04:36:32.685Z,11.20
2023-05-13T04:38:07.436Z,11.20
2023-05-13T04:39:51.471Z,11.24
2023-05-13T04:43:41.618Z,11.31
2023-05-13T04:45:32.635Z,11.33
2023-05-13T04:49:21.564Z,11.38
2023-05-13T04:51:02.691Z,11.43
2023-05-13T04:52:38.164Z,11.47
2023-05-13T04:54:09.914Z,11.52
2023-05-13T04:55:41.924Z,11.57
2023-05-13T04:57:13.920Z,11.60
2023-05-13T04:58:47.830Z,11.62
2023-05-13T05:00:19.662Z,11.66
2023-05-13T05:01:51.310Z,11.66
2023-05-13T05:03:22.989Z,11.63
2023-05-13T05:04:57.654Z,11.66
2023-05-13T05:06:29.135Z,11.70
2023-05-13T05:08:00.746Z,11.72
2023-05-13T05:09:32.288Z,11.73
2023-05-13T05:11:04.522Z,11.71
2023-05-13T05:12:39.142Z,11.72
2023-05-13T05:14:13.652Z,11.81
2023-05-13T05:15:45.242Z,11.84
2023-05-13T05:17:17.241Z,11.90
2023-05-13T05:19:01.691Z,11.91
2023-05-13T05:20:36.573Z,11.96
2023-05-13T05:22:09.034Z,11.98
2023-05-13T05:23:44.001Z,12.03
2023-05-13T05:25:15.822Z,12.08
2023-05-13T05:26:47.290Z,12.08
2023-05-13T05:28:22.067Z,12.03
2023-05-13T05:29:54.584Z,11.99
2023-05-13T05:31:29.794Z,11.95
2023-05-13T05:33:07.944Z,11.89
2023-05-13T05:34:39.548Z,11.87
2023-05-13T05:36:14.918Z,11.83
2023-05-13T05:37:46.543Z,11.79
2023-05-13T05:39:18.485Z,11.83
2023-05-13T05:40:52.838Z,11.94
2023-05-13T05:42:36.509Z,12.03
2023-05-13T05:44:16.167Z,12.12
2023-05-13T05:45:50.853Z,12.23
2023-05-13T05:47:22.438Z,12.30
2023-05-13T05:48:59.017Z,12.39
2023-05-13T05:50:36.826Z,12.47
2023-05-13T05:52:14.267Z,12.52
2023-05-13T05:53:51.690Z,12.60
2023-05-13T05:55:26.544Z,12.64
2023-05-13T05:56:58.683Z,12.70
2023-05-13T05:58:30.319Z,12.80
2023-05-13T06:00:05.484Z,12.91
2023-05-13T06:01:39.616Z,13.02
2023-05-13T06:03:11.633Z,13.13
2023-05-13T06:04:46.073Z,13.21
2023-05-13T06:06:18.029Z,13.29
2023-05-13T06:07:53.235Z,13.38
2023-05-13T06:09:25.301Z,13.44
2023-05-13T06:11:00.164Z,13.47
2023-05-13T06:12:35.164Z,13.48
2023-05-13T06:14:08.478Z,13.49
2023-05-13T06:15:40.132Z,13.56
2023-05-13T06:17:20.971Z,13.64
2023-05-13T06:18:56.108Z,13.68
2023-05-13T06:20:36.680Z,13.74
2023-05-13T06:22:12.063Z,13.80
2023-05-13T06:23:43.969Z,13.85
2023-05-13T06:25:15.814Z,13.90
2023-05-13T06:26:50.145Z,13.88
2023-05-13T06:28:24.506Z,13.85
2023-05-13T06:30:01.932Z,13.82
2023-05-13T06:31:33.426Z,13.74
2023-05-13T06:33:13.506Z,13.73
2023-05-13T06:34:48.546Z,13.81
2023-05-13T06:36:20.606Z,13.90
2023-05-13T06:37:52.297Z,14.02
2023-05-13T06:39:24.479Z,14.09
2023-05-13T06:41:04.783Z,14.18
2023-05-13T06:42:40.517Z,14.29
2023-05-13T06:44:19.492Z,14.37
2023-05-13T06:45:51.547Z,14.39
2023-05-13T06:47:24.019Z,14.46
2023-05-13T06:48:56.926Z,14.57
2023-05-13T06:50:28.552Z,14.62
2023-05-13T06:52:00.732Z,14.61
2023-05-13T06:53:44.972Z,14.64
2023-05-13T06:55:22.598Z,14.62
2023-05-13T06:57:00.175Z,14.70
2023-05-13T06:58:31.787Z,14.77
2023-05-13T07:00:05.679Z,14.77
2023-05-13T07:01:37.275Z,14.78
2023-05-13T07:03:09.193Z,14.80
2023-05-13T07:06:29.318Z,14.82
2023-05-13T07:08:06.967Z,14.87
2023-05-13T07:09:38.655Z,14.90
2023-05-13T07:11:10.219Z,14.94
2023-05-13T07:12:41.844Z,14.94
2023-05-13T07:14:13.397Z,14.99
2023-05-13T07:15:45.832Z,15.03
2023-05-13T07:17:17.659Z,15.00
2023-05-13T07:18:49.921Z,14.92
2023-05-13T07:20:22.870Z,14.83
2023-05-13T07:21:54.770Z,14.80
2023-05-13T07:23:34.194Z,14.80
2023-05-13T07:25:06.376Z,14.88
2023-05-13T07:26:41.030Z,14.89
2023-05-13T07:28:12.636Z,14.92
2023-05-13T07:29:46.484Z,14.98
2023-05-13T07:31:18.090Z,14.95
2023-05-13T07:32:51.419Z,14.97
2023-05-13T07:34:25.557Z,14.99
2023-05-13T07:36:02.156Z,15.00
2023-05-13T07:37:33.749Z,14.99
2023-05-13T07:39:05.881Z,15.10
2023-05-13T07:40:37.502Z,15.21
2023-05-13T07:42:11.596Z,15.33
2023-05-13T07:43:54.970Z,15.44
2023-05-13T07:45:36.159Z,15.49
2023-05-13T07:47:08.032Z,15.45
2023-05-13T07:48:50.814Z,15.46
2023-05-13T07:50:22.623Z,15.50
2023-05-13T07:51:55.878Z,15.56
2023-05-13T07:53:31.025Z,15.61
2023-05-13T07:55:11.990Z,15.70
2023-05-13T07:58:32.573Z,15.85
2023-05-13T08:00:10.597Z,15.85
2023-05-13T08:01:42.725Z,15.90
2023-05-13T08:03:14.585Z,15.94
2023-05-13T08:04:46.680Z,16.01
2023-05-13T08:06:19.241Z,16.11
2023-05-13T08:07:52.108Z,16.14
2023-05-13T08:09:24.817Z,16.18
2023-05-13T08:10:56.621Z,16.16
2023-05-13T08:12:28.347Z,16.19
2023-05-13T08:14:00.052Z,16.26
2023-05-13T08:15:32.642Z,16.24
2023-05-13T08:17:05.155Z,16.25
2023-05-13T08:18:36.793Z,16.32
2023-05-13T08:20:08.606Z,16.52
2023-05-13T08:21:40.252Z,16.66
2023-05-13T08:23:11.875Z,16.76
2023-05-13T08:24:44.211Z,16.97
2023-05-13T08:26:15.833Z,17.15
2023-05-13T08:27:47.341Z,17.20
2023-05-13T08:29:19.185Z,17.28
2023-05-13T08:30:53.165Z,17.37
2023-05-13T08:32:24.766Z,17.51
2023-05-13T08:33:56.788Z,17.56
2023-05-13T08:35:28.428Z,17.69
2023-05-13T08:37:00.312Z,17.74
2023-05-13T08:38:33.608Z,17.82
2023-05-13T08:40:06.224Z,17.93
2023-05-13T08:41:37.900Z,18.02
2023-05-13T08:43:09.666Z,18.00
2023-05-13T08:44:41.731Z,17.91
2023-05-13T08:46:13.563Z,17.96
2023-05-13T08:47:57.455Z,18.08
2023-05-13T08:49:29.476Z,18.19
2023-05-13T08:51:02.344Z,18.31
2023-05-13T08:52:34.048Z,18.31
2023-05-13T08:54:06.341Z,18.38
2023-05-13T08:55:47.723Z,18.45
2023-05-13T08:57:22.276Z,18.48
2023-05-13T08:58:57.185Z,18.37
2023-05-13T09:00:29.168Z,18.31
2023-05-13T09:02:04.809Z,18.31
2023-05-13T09:03:50.681Z,18.43
2023-05-13T09:05:22.528Z,18.55
2023-05-13T09:06:57.628Z,18.70
2023-05-13T09:08:29.958Z,18.84
2023-05-13T09:10:01.695Z,19.01
2023-05-13T09:11:34.241Z,19.03
2023-05-13T09:13:06.271Z,18.99
2023-05-13T09:14:39.298Z,18.98
2023-05-13T09:16:16.045Z,18.89
2023-05-13T09:17:52.665Z,18.96
2023-05-13T09:19:31.361Z,19.09
2023-05-13T09:21:21.870Z,19.23
2023-05-13T09:22:56.009Z,19.42
2023-05-13T09:24:27.778Z,19.52
2023-05-13T09:25:59.455Z,19.47
2023-05-13T09:27:39.614Z,19.56
2023-05-13T09:29:24.566Z,19.66
2023-05-13T09:31:04.810Z,19.83
2023-05-13T09:32:43.386Z,20.04
2023-05-13T09:34:15.560Z,20.22
2023-05-13T09:39:54.873Z,20.65
2023-05-13T09:41:32.989Z,20.72
2023-05-13T09:43:04.597Z,20.52
2023-05-13T09:44:36.525Z,20.60
2023-05-13T09:46:09.189Z,20.72
2023-05-13T09:47:41.600Z,20.63
2023-05-13T09:49:13.269Z,20.62
2023-05-13T09:50:49.344Z,20.57
2023-05-13T09:52:21.311Z,20.62
2023-05-13T09:53:53.766Z,20.62
2023-05-13T09:55:25.910Z,20.60
2023-05-13T09:57:01.711Z,20.57
2023-05-13T09:58:33.512Z,20.67
2023-05-13T10:00:12.800Z,20.72
2023-05-13T10:01:50.291Z,20.86
2023-05-13T10:03:22.137Z,20.89
2023-05-13T10:04:55.894Z,20.78
2023-05-13T10:06:30.913Z,20.92
2023-05-13T10:08:05.542Z,21.02
2023-05-13T10:09:37.344Z,21.07
2023-05-13T10:11:13.082Z,21.03
2023-05-13T10:12:45.592Z,21.00
2023-05-13T10:14:17.272Z,21.02
2023-05-13T10:15:51.165Z,21.10
2023-05-13T10:17:23.790Z,21.26
2023-05-13T10:18:56.589Z,21.41
2023-05-13T10:20:28.608Z,21.58
2023-05-13T10:22:00.389Z,21.49
2023-05-13T10:23:33.786Z,21.39
2023-05-13T10:25:05.720Z,21.29
2023-05-13T10:26:37.408Z,21.22
2023-05-13T10:28:09.104Z,21.14
2023-05-13T10:29:40.853Z,21.14
2023-05-13T10:31:13.097Z,21.31
2023-05-13T10:32:44.831Z,21.55
2023-05-13T10:34:17.115Z,21.63
2023-05-13T10:35:58.266Z,21.72
2023-05-13T10:37:48.819Z,21.84
2023-05-13T10:39:20.572Z,21.84
2023-05-13T10:40:58.407Z,21.93
2023-05-13T10:42:47.739Z,22.09
2023-05-13T10:44:20.126Z,22.33
2023-05-13T10:45:53.171Z,22.45
2023-05-13T10:47:31.758Z,22.53
2023-05-13T10:49:03.515Z,22.50
2023-05-13T10:50:39.227Z,22.64
2023-05-13T10:52:14.471Z,22.57
2023-05-13T10:53:53.501Z,22.43
2023-05-13T10:55:25.826Z,22.45
2023-05-13T10:56:58.000Z,22.58
2023-05-13T10:58:33.387Z,22.66
2023-05-13T11:00:17.789Z,22.65
2023-05-13T11:01:50.129Z,22.63
2023-05-13T11:03:21.879Z,22.67
2023-05-13T11:05:01.157Z,22.71
2023-05-13T11:06:37.107Z,22.71
2023-05-13T11:08:08.900Z,22.61
2023-05-13T11:09:40.539Z,22.50
2023-05-13T11:11:21.490Z,22.55
2023-05-13T11:13:11.588Z,22.53
2023-05-13T11:14:44.147Z,22.55
2023-05-13T11:16:16.385Z,22.52
2023-05-13T11:17:48.368Z,22.52
2023-05-13T11:19:26.719Z,22.44
2023-05-13T11:21:05.826Z,22.32
2023-05-13T11:22:38.001Z,22.39
2023-05-13T11:24:09.563Z,22.50
2023-05-13T11:25:41.073Z,22.80
2023-05-13T11:27:16.839Z,22.89
2023-05-13T11:28:55.301Z,22.75
2023-05-13T11:30:27.310Z,22.76
2023-05-13T11:32:00.880Z,22.71
2023-05-13T11:33:51.330Z,22.84
2023-05-13T11:35:23.765Z,22.84
2023-05-13T11:36:57.816Z,22.70
2023-05-13T11:38:29.718Z,22.57
2023-05-13T11:40:01.908Z,22.58
2023-05-13T11:41:34.339Z,22.66
2023-05-13T11:43:06.319Z,22.63
2023-05-13T11:44:40.606Z,22.56
2023-05-13T11:46:12.326Z,22.43
2023-05-13T11:47:44.534Z,22.36
2023-05-13T11:49:32.954Z,22.37
2023-05-13T11:51:07.843Z,22.16
2023-05-13T11:52:40.098Z,22.12
2023-05-13T11:54:12.344Z,22.21
2023-05-13T11:55:44.522Z,22.17
2023-05-13T11:57:19.689Z,22.29
2023-05-13T11:58:51.784Z,22.34
2023-05-13T12:00:29.822Z,22.30
2023-05-13T12:02:01.836Z,22.36
2023-05-13T12:03:34.085Z,22.41
2023-05-13T12:05:09.431Z,22.33
2023-05-13T12:06:45.266Z,22.32
2023-05-13T12:08:16.898Z,22.26
2023-05-13T12:09:49.289Z,22.17
2023-05-13T12:11:20.856Z,22.20
2023-05-13T12:12:52.913Z,22.27
2023-05-13T12:14:27.550Z,22.32
2023-05-13T12:15:59.809Z,22.50
2023-05-13T12:17:32.060Z,22.58
2023-05-13T12:19:09.213Z,22.65
2023-05-13T12:20:40.845Z,22.79
2023-05-13T12:22:12.493Z,22.98
2023-05-13T12:23:44.945Z,23.03
2023-05-13T12:25:35.838Z,23.07
2023-05-13T12:27:09.443Z,23.06
2023-05-13T12:28:43.257Z,23.07
2023-05-13T12:30:15.509Z,23.08
2023-05-13T12:32:03.829Z,23.13
2023-05-13T12:33:41.948Z,23.21
2023-05-13T12:35:14.585Z,23.41
2023-05-13T12:36:46.756Z,23.55
2023-05-13T12:38:19.407Z,23.64
2023-05-13T12:39:51.035Z,23.72
2023-05-13T12:41:23.363Z,23.70
2023-05-13T12:42:58.386Z,23.65
2023-05-13T12:44:30.405Z,23.73
2023-05-13T12:46:06.494Z,23.78
2023-05-13T12:47:48.895Z,23.82
2023-05-13T12:49:21.464Z,23.80
2023-05-13T12:50:53.505Z,23.83
2023-05-13T12:52:25.207Z,23.88
2023-05-13T12:53:57.413Z,23.91
2023-05-13T12:55:29.104Z,23.97
2023-05-13T12:57:01.465Z,24.05
2023-05-13T12:58:33.531Z,24.12
2023-05-13T13:00:06.254Z,23.87
2023-05-13T13:01:38.304Z,23.65
2023-05-13T13:03:10.385Z,23.52
2023-05-13T13:04:43.339Z,23.39
2023-05-13T13:06:14.997Z,23.25
2023-05-13T13:07:47.406Z,23.30
2023-05-13T13:09:19.412Z,23.44
2023-05-13T13:10:51.296Z,23.60
2023-05-13T13:12:22.808Z,23.61
2023-05-13T13:13:54.418Z,23.63
2023-05-13T13:15:26.180Z,23.75
2023-05-13T13:16:58.153Z,23.77
2023-05-13T13:18:29.994Z,23.88
2023-05-13T13:20:02.013Z,23.93
2023-05-13T13:21:33.687Z,23.97
2023-05-13T13:23:05.594Z,24.08
2023-05-13T13:24:37.609Z,24.19
2023-05-13T13:26:09.356Z,24.32
2023-05-13T13:27:40.953Z,24.41
2023-05-13T13:29:12.574Z,24.53
2023-05-13T13:30:47.120Z,24.56
2023-05-13T13:32:19.065Z,24.56
2023-05-13T13:33:50.762Z,24.57
2023-05-13T13:35:22.802Z,24.68
2023-05-13T13:36:54.709Z,24.75
2023-05-13T13:38:26.346Z,24.58
2023-05-13T13:39:58.043Z,24.65
2023-05-13T13:41:29.772Z,24.61
2023-05-13T13:43:01.626Z,24.48
2023-05-13T13:44:33.342Z,24.48
2023-05-13T13:46:05.075Z,24.48
2023-05-13T13:47:36.886Z,24.55
2023-05-13T13:49:22.582Z,24.61
2023-05-13T13:50:55.789Z,24.69
2023-05-13T13:52:28.976Z,24.69
2023-05-13T13:54:04.193Z,24.82
2023-05-13T13:55:36.407Z,24.93
2023-05-13T13:57:08.132Z,24.90
2023-05-13T13:58:41.015Z,24.77
2023-05-13T14:00:13.347Z,24.64
2023-05-13T14:01:45.485Z,24.52
2023-05-13T14:03:17.590Z,24.49
2023-05-13T14:04:49.445Z,24.57
2023-05-13T14:06:21.201Z,24.58
2023-05-13T14:07:54.366Z,24.48
2023-05-13T14:09:26.213Z,24.34
2023-05-13T14:10:58.110Z,24.30
2023-05-13T14:12:29.889Z,24.29
2023-05-13T14:14:02.400Z,24.22
2023-05-13T14:15:34.011Z,24.15
2023-05-13T14:17:06.280Z,23.99
2023-05-13T14:18:38.489Z,23.89
2023-05-13T14:20:12.282Z,23.88
2023-05-13T14:21:44.292Z,23.95
2023-05-13T14:23:16.523Z,24.05
2023-05-13T14:24:48.290Z,24.15
2023-05-13T14:26:19.970Z,24.09
2023-05-13T14:27:51.528Z,23.94
2023-05-13T14:29:23.240Z,23.92
2023-05-13T14:30:55.104Z,24.02
2023-05-13T14:32:26.769Z,24.14
2023-05-13T14:33:58.650Z,24.14
2023-05-13T14:35:30.217Z,24.07
2023-05-13T14:37:02.542Z,24.03
2023-05-13T14:38:34.103Z,24.01
2023-05-13T14:40:05.959Z,24.10
2023-05-13T14:41:37.626Z,24.18
2023-05-13T14:43:09.275Z,24.26
2023-05-13T14:44:43.918Z,24.28
2023-05-13T14:46:15.985Z,24.36
2023-05-13T14:47:47.702Z,24.42
2023-05-13T14:49:19.804Z,24.45
2023-05-13T14:50:52.581Z,24.46
2023-05-13T14:52:24.304Z,24.49
2023-05-13T14:53:56.012Z,24.45
2023-05-13T14:55:27.668Z,24.44
2023-05-13T14:56:59.731Z,24.38
2023-05-13T14:58:31.482Z,24.37
2023-05-13T15:00:03.534Z,24.25
2023-05-13T15:01:35.391Z,24.17
2023-05-13T15:03:07.405Z,24.12
2023-05-13T15:04:39.212Z,24.16
2023-05-13T15:06:10.761Z,24.22
2023-05-13T15:07:42.471Z,24.23
2023-05-13T15:09:14.712Z,24.20
2023-05-13T15:10:46.731Z,24.16
2023-05-13T15:12:18.928Z,24.08
2023-05-13T15:13:50.562Z,24.02
2023-05-13T15:15:23.807Z,23.93
2023-05-13T15:16:55.610Z,23.81
2023-05-13T15:18:27.342Z,23.73
2023-05-13T15:19:58.907Z,23.65
2023-05-13T15:21:31.337Z,23.61
2023-05-13T15:23:03.463Z,23.63
2023-05-13T15:24:35.475Z,23.63
2023-05-13T15:26:07.166Z,23.65
2023-05-13T15:27:38.840Z,23.62
2023-05-13T15:29:10.594Z,23.54
2023-05-13T15:30:43.225Z,23.42
2023-05-13T15:32:15.192Z,23.33
2023-05-13T15:33:46.804Z,23.23
2023-05-13T15:35:18.432Z,23.21
2023-05-13T15:36:50.052Z,23.21
2023-05-13T15:38:21.592Z,23.17
2023-05-13T15:39:53.233Z,23.07
2023-05-13T15:41:24.791Z,23.00
2023-05-13T15:42:56.955Z,22.89
2023-05-13T15:44:28.614Z,22.78
2023-05-13T15:46:00.482Z,22.68
2023-05-13T15:47:32.308Z,22.62
2023-05-13T15:49:04.260Z,22.57
2023-05-13T15:50:36.133Z,22.54
2023-05-13T15:52:07.801Z,22.55
2023-05-13T15:53:39.515Z,22.56
2023-05-13T15:55:12.033Z,22.53
2023-05-13T15:56:43.713Z,22.49
2023-05-13T15:58:16.207Z,22.47
2023-05-13T15:59:47.846Z,22.44
2023-05-13T16:01:19.521Z,22.44
2023-05-13T16:02:51.525Z,22.42
2023-05-13T16:04:23.450Z,22.42
2023-05-13T16:05:55.661Z,22.42
2023-05-13T16:07:27.293Z,22.41
2023-05-13T16:09:00.976Z,22.32
2023-05-13T16:10:34.016Z,22.22
2023-05-13T16:12:05.813Z,22.06
2023-05-13T16:13:38.047Z,21.98
2023-05-13T16:15:10.122Z,21.88
2023-05-13T16:16:41.772Z,21.84
2023-05-13T16:18:13.576Z,21.80
2023-05-13T16:19:48.816Z,21.76
2023-05-13T16:21:20.561Z,21.68
2023-05-13T16:22:52.065Z,21.55
2023-05-13T16:24:23.720Z,21.44
2023-05-13T16:25:55.328Z,21.33
2023-05-13T16:27:28.023Z,21.22
2023-05-13T16:28:59.739Z,21.07
2023-05-13T16:30:32.244Z,20.92
2023-05-13T16:32:05.232Z,20.80
2023-05-13T16:33:37.025Z,20.70
2023-05-13T16:35:10.173Z,20.58
2023-05-13T16:36:41.813Z,20.46
2023-05-13T16:38:13.397Z,20.37
2023-05-13T16:39:45.006Z,20.31
2023-05-13T16:41:16.735Z,20.22
2023-05-13T16:42:48.343Z,20.11
2023-05-13T16:44:19.952Z,20.05
2023-05-13T16:45:51.514Z,20.00
2023-05-13T16:47:23.354Z,19.98
2023-05-13T16:48:56.568Z,19.89
2023-05-13T16:50:30.232Z,19.84
2023-05-13T16:52:02.861Z,19.81
2023-05-13T16:53:35.034Z,19.76
2023-05-13T16:55:06.957Z,19.69
2023-05-13T16:56:38.658Z,19.58
2023-05-13T16:58:10.264Z,19.49
2023-05-13T16:59:42.114Z,19.38
2023-05-13T17:01:13.685Z,19.30
2023-05-13T17:02:45.587Z,19.26
2023-05-13T17:04:17.423Z,19.22
2023-05-13T17:05:49.322Z,19.17
2023-05-13T17:07:21.130Z,19.17
2023-05-13T17:08:52.653Z,19.18
2023-05-13T17:10:24.543Z,19.19
2023-05-13T17:11:56.918Z,19.18
2023-05-13T17:13:29.071Z,19.07
2023-05-13T17:15:00.848Z,18.94
2023-05-13T17:16:33.000Z,18.84
2023-05-13T17:18:05.464Z,18.80
2023-05-13T17:19:37.414Z,18.77
2023-05-13T17:21:09.074Z,18.77
2023-05-13T17:22:45.486Z,18.79
2023-05-13T17:24:17.060Z,18.79
2023-05-13T17:25:48.744Z,18.70
2023-05-13T17:27:21.982Z,18.51
2023-05-13T17:28:54.547Z,18.38
2023-05-13T17:30:26.160Z,18.23
2023-05-13T17:31:58.170Z,18.15
2023-05-13T17:33:30.033Z,18.08
2023-05-13T17:35:02.998Z,18.03
2023-05-13T17:36:34.543Z,18.01
2023-05-13T17:38:06.322Z,17.94
2023-05-13T17:39:38.587Z,17.88
2023-05-13T17:41:10.104Z,17.83
2023-05-13T17:42:42.678Z,17.84
2023-05-13T17:44:16.469Z,17.80
2023-05-13T17:45:48.084Z,17.82
2023-05-13T17:47:21.817Z,17.78
2023-05-13T17:48:53.595Z,17.75
2023-05-13T17:50:25.594Z,17.74
2023-05-13T17:51:57.357Z,17.67
2023-05-13T17:53:29.092Z,17.62
2023-05-13T17:55:01.000Z,17.56
2023-05-13T17:56:32.877Z,17.53
2023-05-13T17:58:04.550Z,17.50
2023-05-13T17:59:36.139Z,17.41
2023-05-13T18:01:07.880Z,17.35
2023-05-13T18:02:42.705Z,17.30
2023-05-13T18:04:15.100Z,17.29
2023-05-13T18:05:47.156Z,17.28
2023-05-13T18:07:19.768Z,17.25
2023-05-13T18:08:51.862Z,17.19
2023-05-13T18:10:24.136Z,17.13
2023-05-13T18:11:56.235Z,17.08
2023-05-13T18:13:27.937Z,17.04
2023-05-13T18:15:00.542Z,17.03
2023-05-13T18:16:32.304Z,17.02
2023-05-13T18:18:04.070Z,16.93
2023-05-13T18:19:35.915Z,16.93
2023-05-13T18:21:07.673Z,16.88
2023-05-13T18:22:39.488Z,16.86
2023-05-13T18:24:11.155Z,16.79
2023-05-13T18:25:54.728Z,16.77
2023-05-13T18:27:27.600Z,16.78
2023-05-13T18:28:59.530Z,16.76
2023-05-13T18:30:31.646Z,16.73
2023-05-13T18:32:03.395Z,16.66
2023-05-13T18:33:35.345Z,16.65
2023-05-13T18:35:07.192Z,16.59
2023-05-13T18:36:39.275Z,16.58
2023-05-13T18:38:11.440Z,16.55
2023-05-13T18:39:45.847Z,16.51
2023-05-13T18:41:17.605Z,16.48
2023-05-13T18:42:49.535Z,16.43
2023-05-13T18:44:21.195Z,16.40
2023-05-13T18:45:54.414Z,16.36
2023-05-13T18:47:27.782Z,16.34
2023-05-13T18:49:00.561Z,16.34
2023-05-13T18:50:32.235Z,16.29
2023-05-13T18:52:03.810Z,16.26
2023-05-13T18:53:35.466Z,16.26
2023-05-13T18:55:07.543Z,16.26
2023-05-13T18:56:39.564Z,16.23
2023-05-13T18:58:11.074Z,16.22
2023-05-13T18:59:43.285Z,16.17
2023-05-13T19:01:18.583Z,16.14
2023-05-13T19:02:51.159Z,16.08
2023-05-13T19:04:23.141Z,16.04
2023-05-13T19:05:55.272Z,16.02
2023-05-13T19:07:26.996Z,16.02
2023-05-13T19:08:59.429Z,16.01
2023-05-13T19:10:33.222Z,16.03
2023-05-13T19:12:07.713Z,16.05
2023-05-13T19:15:21.445Z,16.01
2023-05-13T19:16:53.489Z,16.00
2023-05-13T19:18:25.484Z,16.00
2023-05-13T19:20:00.525Z,15.99
2023-05-13T19:21:32.329Z,15.99
2023-05-13T19:23:04.446Z,15.99
2023-05-13T19:24:36.265Z,16.00
2023-05-13T19:26:08.353Z,16.00
2023-05-13T19:27:40.930Z,16.00
2023-05-13T19:29:12.613Z,15.97
2023-05-13T19:30:44.707Z,15.94
2023-05-13T19:32:16.887Z,15.96
2023-05-13T19:33:48.624Z,16.00
2023-05-13T19:35:20.674Z,15.98
2023-05-13T19:36:52.330Z,15.93
2023-05-13T19:38:24.072Z,15.92
2023-05-13T19:39:56.739Z,15.91
2023-05-13T19:41:28.693Z,15.93
2023-05-13T19:43:00.410Z,15.93
2023-05-13T19:44:32.359Z,15.92
2023-05-13T19:46:04.344Z,15.92
2023-05-13T19:47:35.915Z,15.90
2023-05-13T19:49:07.610Z,15.90
2023-05-13T19:50:40.089Z,15.88
2023-05-13T19:52:12.086Z,15.90
2023-05-13T19:53:43.866Z,15.91
2023-05-13T19:55:15.751Z,15.94
2023-05-13T19:56:47.994Z,15.94
2023-05-13T19:58:19.927Z,15.96
2023-05-13T19:59:52.455Z,15.97
2023-05-13T20:01:25.212Z,15.94
2023-05-13T20:02:57.607Z,15.95
2023-05-13T20:04:29.712Z,15.92
2023-05-13T20:06:02.212Z,15.92
2023-05-13T20:07:33.880Z,15.87
2023-05-13T20:09:06.371Z,15.84
2023-05-13T20:10:38.219Z,15.81
2023-05-13T20:12:10.055Z,15.80
2023-05-13T20:13:41.611Z,15.78
2023-05-13T20:15:15.319Z,15.77
2023-05-13T20:16:47.818Z,15.79
2023-05-13T20:18:20.296Z,15.77
2023-05-13T20:19:52.244Z,15.73
2023-05-13T20:21:24.184Z,15.69
2023-05-13T20:22:56.271Z,15.65
2023-05-13T20:24:27.916Z,15.61
2023-05-13T20:25:59.453Z,15.59
2023-05-13T20:27:31.135Z,15.58
2023-05-13T20:29:03.084Z,15.60
2023-05-13T20:30:34.657Z,15.63
2023-05-13T20:32:06.454Z,15.63
2023-05-13T20:33:38.238Z,15.60
2023-05-13T20:35:10.251Z,15.63